Gainesville, Alabama
Current Conditions -  °F | °C
As of 10:15 AM on Saturday 25 Oct 2014 (Local Time) from KDYA Reporting Station
Clear Clear  
Wind Chill: 66°   Ceiling: Unl
Heat Index: 66°   Visibility: 10mi
Dew Point: 51°   Wind: 0mph
Humidity: 58%   Direction: NA
Pressure: 30.14"   Gusts: NA
Location:  32.82°N, 88.16°W
Report Text: KDYA 251515Z AUTO 00000KT 10SM CLR 19/11 A3014 RMK AO2 T01890105
Loading
Personal Weather Stations






























Interactive Weather Map
Tropical Storm Tracking
New forecast layout! Learn more

10-Day Weather Forecast

Advertisements
Track Severe Weather on mobile